Terminal Aerodrome Forecast
Issued by NWS

Home | Current Version | Previous Version | Text Only | Print | Product List | Glossary On
Versions: 1 2 3 4 5 6 7 8 9 10 11 12
000
FTUS42 TJSJ 311700
TAFISX
TAF
TISX 311735Z 3118/0118 12012KT P6SM VCTS SCT025 BKN040CB
     FM010000 06006KT P6SM SCT025
     FM011200 11012KT P6SM SCT025 BKN250=

USA.gov is the U.S. government's official web portal to all federal, state and local government web resources and services.